sensor_id;sensor_type;location;lat;lon;timestamp;P1;durP1;ratioP1;P2;durP2;ratioP2
928;SDS011;451;47.988;7.842;2023-06-26T00:06:48;10.37;;;9.53;;
928;SDS011;451;47.988;7.842;2023-06-26T00:15:51;9.10;;;8.40;;
928;SDS011;451;47.988;7.842;2023-06-26T00:24:55;9.07;;;8.27;;
928;SDS011;451;47.988;7.842;2023-06-26T00:33:59;8.73;;;8.03;;
928;SDS011;451;47.988;7.842;2023-06-26T00:43:03;8.47;;;7.67;;
928;SDS011;451;47.988;7.842;2023-06-26T00:52:06;9.60;;;8.63;;
928;SDS011;451;47.988;7.842;2023-06-26T01:01:11;8.67;;;7.97;;
928;SDS011;451;47.988;7.842;2023-06-26T01:10:18;9.53;;;8.40;;
928;SDS011;451;47.988;7.842;2023-06-26T01:19:23;9.40;;;8.50;;
928;SDS011;451;47.988;7.842;2023-06-26T01:28:31;9.63;;;8.73;;
928;SDS011;451;47.988;7.842;2023-06-26T01:37:37;9.60;;;8.70;;
928;SDS011;451;47.988;7.842;2023-06-26T01:46:42;9.37;;;8.47;;
928;SDS011;451;47.988;7.842;2023-06-26T01:55:58;9.60;;;8.60;;
928;SDS011;451;47.988;7.842;2023-06-26T02:05:07;10.37;;;9.37;;
928;SDS011;451;47.988;7.842;2023-06-26T02:14:11;48.30;;;32.03;;
928;SDS011;451;47.988;7.842;2023-06-26T02:23:15;10.57;;;9.47;;
928;SDS011;451;47.988;7.842;2023-06-26T02:32:18;10.23;;;9.23;;
928;SDS011;451;47.988;7.842;2023-06-26T02:41:26;10.00;;;9.10;;
928;SDS011;451;47.988;7.842;2023-06-26T02:50:29;10.63;;;9.63;;
928;SDS011;451;47.988;7.842;2023-06-26T02:59:46;9.20;;;8.40;;
928;SDS011;451;47.988;7.842;2023-06-26T03:08:49;9.27;;;8.47;;
928;SDS011;451;47.988;7.842;2023-06-26T03:17:53;9.10;;;8.40;;
928;SDS011;451;47.988;7.842;2023-06-26T03:27:01;12.33;;;9.73;;
928;SDS011;451;47.988;7.842;2023-06-26T03:36:06;11.00;;;10.00;;
928;SDS011;451;47.988;7.842;2023-06-26T03:45:10;9.47;;;8.57;;
928;SDS011;451;47.988;7.842;2023-06-26T03:54:16;8.77;;;8.07;;
928;SDS011;451;47.988;7.842;2023-06-26T04:03:19;10.50;;;9.50;;
928;SDS011;451;47.988;7.842;2023-06-26T04:12:24;9.57;;;8.67;;
928;SDS011;451;47.988;7.842;2023-06-26T04:21:27;9.83;;;8.93;;
928;SDS011;451;47.988;7.842;2023-06-26T04:30:31;9.70;;;8.90;;
928;SDS011;451;47.988;7.842;2023-06-26T04:39:35;10.03;;;9.03;;
928;SDS011;451;47.988;7.842;2023-06-26T04:48:40;10.40;;;9.50;;
928;SDS011;451;47.988;7.842;2023-06-26T04:57:44;9.57;;;8.77;;
928;SDS011;451;47.988;7.842;2023-06-26T05:06:48;11.20;;;10.10;;
928;SDS011;451;47.988;7.842;2023-06-26T05:15:51;9.03;;;8.30;;
928;SDS011;451;47.988;7.842;2023-06-26T05:24:56;9.07;;;8.27;;
928;SDS011;451;47.988;7.842;2023-06-26T05:34:02;9.90;;;8.73;;
928;SDS011;451;47.988;7.842;2023-06-26T05:43:08;9.47;;;8.67;;
928;SDS011;451;47.988;7.842;2023-06-26T05:52:11;10.60;;;9.57;;
928;SDS011;451;47.988;7.842;2023-06-26T06:01:17;10.57;;;9.60;;
928;SDS011;451;47.988;7.842;2023-06-26T06:10:20;11.33;;;9.23;;
928;SDS011;451;47.988;7.842;2023-06-26T06:19:24;9.37;;;8.00;;
928;SDS011;451;47.988;7.842;2023-06-26T06:28:27;9.30;;;8.40;;
928;SDS011;451;47.988;7.842;2023-06-26T06:37:32;9.63;;;8.60;;
928;SDS011;451;47.988;7.842;2023-06-26T06:46:35;10.03;;;9.03;;
928;SDS011;451;47.988;7.842;2023-06-26T06:55:39;9.43;;;8.57;;
928;SDS011;451;47.988;7.842;2023-06-26T07:04:42;9.40;;;8.47;;
928;SDS011;451;47.988;7.842;2023-06-26T07:13:46;8.80;;;8.00;;
928;SDS011;451;47.988;7.842;2023-06-26T07:22:49;8.67;;;7.93;;
928;SDS011;451;47.988;7.842;2023-06-26T07:31:54;8.80;;;8.00;;
928;SDS011;451;47.988;7.842;2023-06-26T07:40:57;8.73;;;8.03;;
928;SDS011;451;47.988;7.842;2023-06-26T07:50:02;15.40;;;12.40;;
928;SDS011;451;47.988;7.842;2023-06-26T07:59:05;9.03;;;8.33;;
928;SDS011;451;47.988;7.842;2023-06-26T08:08:10;9.17;;;8.40;;
928;SDS011;451;47.988;7.842;2023-06-26T08:17:13;9.87;;;8.97;;
928;SDS011;451;47.988;7.842;2023-06-26T08:26:17;9.43;;;8.63;;
928;SDS011;451;47.988;7.842;2023-06-26T08:35:20;10.40;;;9.37;;
928;SDS011;451;47.988;7.842;2023-06-26T08:44:25;10.37;;;9.53;;
928;SDS011;451;47.988;7.842;2023-06-26T08:53:29;10.93;;;9.93;;
928;SDS011;451;47.988;7.842;2023-06-26T09:02:37;10.20;;;9.30;;
928;SDS011;451;47.988;7.842;2023-06-26T09:11:41;10.87;;;9.97;;
928;SDS011;451;47.988;7.842;2023-06-26T09:20:46;9.60;;;8.90;;
928;SDS011;451;47.988;7.842;2023-06-26T09:29:49;11.37;;;10.27;;
928;SDS011;451;47.988;7.842;2023-06-26T09:38:54;11.93;;;10.83;;
928;SDS011;451;47.988;7.842;2023-06-26T09:47:59;11.83;;;10.30;;
928;SDS011;451;47.988;7.842;2023-06-26T09:57:08;10.60;;;9.70;;
928;SDS011;451;47.988;7.842;2023-06-26T10:06:11;10.53;;;9.63;;
928;SDS011;451;47.988;7.842;2023-06-26T10:15:16;10.53;;;9.73;;
928;SDS011;451;47.988;7.842;2023-06-26T10:24:20;12.47;;;11.37;;
928;SDS011;451;47.988;7.842;2023-06-26T10:33:26;11.80;;;10.83;;
928;SDS011;451;47.988;7.842;2023-06-26T10:42:34;12.70;;;11.60;;
928;SDS011;451;47.988;7.842;2023-06-26T10:51:39;12.10;;;10.83;;
928;SDS011;451;47.988;7.842;2023-06-26T11:00:49;12.40;;;11.20;;
928;SDS011;451;47.988;7.842;2023-06-26T11:09:54;11.83;;;11.00;;
928;SDS011;451;47.988;7.842;2023-06-26T11:19:01;11.50;;;10.70;;
928;SDS011;451;47.988;7.842;2023-06-26T11:28:09;12.10;;;10.90;;
928;SDS011;451;47.988;7.842;2023-06-26T11:37:12;12.43;;;11.07;;
928;SDS011;451;47.988;7.842;2023-06-26T11:46:21;12.33;;;11.23;;
928;SDS011;451;47.988;7.842;2023-06-26T11:55:25;12.97;;;11.57;;
928;SDS011;451;47.988;7.842;2023-06-26T12:04:30;9.77;;;8.90;;
928;SDS011;451;47.988;7.842;2023-06-26T12:13:33;9.60;;;8.80;;
928;SDS011;451;47.988;7.842;2023-06-26T12:22:38;8.63;;;7.93;;
928;SDS011;451;47.988;7.842;2023-06-26T12:31:41;17.73;;;15.50;;
928;SDS011;451;47.988;7.842;2023-06-26T12:40:48;10.50;;;9.60;;
928;SDS011;451;47.988;7.842;2023-06-26T12:49:51;10.10;;;9.10;;
928;SDS011;451;47.988;7.842;2023-06-26T12:58:56;8.83;;;8.13;;
928;SDS011;451;47.988;7.842;2023-06-26T13:07:59;11.90;;;7.20;;
928;SDS011;451;47.988;7.842;2023-06-26T13:17:04;8.47;;;7.67;;
928;SDS011;451;47.988;7.842;2023-06-26T13:26:07;7.93;;;7.13;;
928;SDS011;451;47.988;7.842;2023-06-26T13:35:12;7.33;;;6.70;;
928;SDS011;451;47.988;7.842;2023-06-26T13:44:16;7.87;;;7.20;;
928;SDS011;451;47.988;7.842;2023-06-26T13:53:20;6.53;;;6.03;;
928;SDS011;451;47.988;7.842;2023-06-26T14:02:23;6.40;;;5.93;;
928;SDS011;451;47.988;7.842;2023-06-26T14:11:29;6.60;;;6.00;;
928;SDS011;451;47.988;7.842;2023-06-26T14:20:33;5.93;;;5.43;;
928;SDS011;451;47.988;7.842;2023-06-26T14:29:38;4.70;;;4.40;;
928;SDS011;451;47.988;7.842;2023-06-26T14:38:41;5.10;;;4.70;;
928;SDS011;451;47.988;7.842;2023-06-26T14:47:46;4.53;;;4.20;;
928;SDS011;451;47.988;7.842;2023-06-26T14:56:49;7.93;;;5.57;;
928;SDS011;451;47.988;7.842;2023-06-26T15:05:53;5.10;;;4.70;;
928;SDS011;451;47.988;7.842;2023-06-26T15:14:56;5.33;;;4.93;;
928;SDS011;451;47.988;7.842;2023-06-26T15:24:01;5.97;;;5.37;;
928;SDS011;451;47.988;7.842;2023-06-26T15:33:04;6.30;;;5.80;;
928;SDS011;451;47.988;7.842;2023-06-26T15:42:09;6.83;;;6.20;;
928;SDS011;451;47.988;7.842;2023-06-26T15:51:12;6.83;;;6.30;;
928;SDS011;451;47.988;7.842;2023-06-26T16:00:18;9.23;;;8.17;;
928;SDS011;451;47.988;7.842;2023-06-26T16:09:22;8.57;;;7.77;;
928;SDS011;451;47.988;7.842;2023-06-26T16:18:26;10.63;;;9.57;;
928;SDS011;451;47.988;7.842;2023-06-26T16:27:29;13.90;;;11.23;;
928;SDS011;451;47.988;7.842;2023-06-26T16:36:34;11.80;;;10.37;;
928;SDS011;451;47.988;7.842;2023-06-26T16:45:37;9.30;;;8.40;;
928;SDS011;451;47.988;7.842;2023-06-26T16:54:41;8.10;;;7.40;;
928;SDS011;451;47.988;7.842;2023-06-26T17:03:44;11.57;;;7.97;;
928;SDS011;451;47.988;7.842;2023-06-26T17:12:50;8.03;;;7.33;;
928;SDS011;451;47.988;7.842;2023-06-26T17:21:54;7.97;;;7.27;;
928;SDS011;451;47.988;7.842;2023-06-26T17:30:59;7.33;;;6.63;;
928;SDS011;451;47.988;7.842;2023-06-26T17:40:02;6.97;;;6.27;;
928;SDS011;451;47.988;7.842;2023-06-26T17:49:11;6.00;;;5.50;;
928;SDS011;451;47.988;7.842;2023-06-26T17:58:14;7.70;;;6.00;;
928;SDS011;451;47.988;7.842;2023-06-26T18:07:19;9.10;;;6.00;;
928;SDS011;451;47.988;7.842;2023-06-26T18:16:23;4.60;;;4.20;;
928;SDS011;451;47.988;7.842;2023-06-26T18:25:27;6.93;;;4.60;;
928;SDS011;451;47.988;7.842;2023-06-26T18:34:30;4.20;;;3.90;;
928;SDS011;451;47.988;7.842;2023-06-26T18:43:35;6.50;;;3.77;;
928;SDS011;451;47.988;7.842;2023-06-26T18:52:38;4.33;;;3.70;;
928;SDS011;451;47.988;7.842;2023-06-26T19:01:43;4.80;;;3.40;;
928;SDS011;451;47.988;7.842;2023-06-26T19:10:46;3.60;;;3.30;;
928;SDS011;451;47.988;7.842;2023-06-26T19:19:50;4.53;;;2.97;;
928;SDS011;451;47.988;7.842;2023-06-26T19:28:54;2.93;;;2.67;;
928;SDS011;451;47.988;7.842;2023-06-26T19:38:00;3.20;;;2.90;;
928;SDS011;451;47.988;7.842;2023-06-26T19:47:04;3.43;;;3.13;;
928;SDS011;451;47.988;7.842;2023-06-26T19:56:08;2.63;;;2.43;;
928;SDS011;451;47.988;7.842;2023-06-26T20:05:11;4.70;;;2.70;;
928;SDS011;451;47.988;7.842;2023-06-26T20:14:16;4.37;;;2.70;;
928;SDS011;451;47.988;7.842;2023-06-26T20:23:19;3.07;;;2.77;;
928;SDS011;451;47.988;7.842;2023-06-26T20:32:24;4.20;;;2.90;;
928;SDS011;451;47.988;7.842;2023-06-26T20:41:30;3.80;;;2.50;;
928;SDS011;451;47.988;7.842;2023-06-26T20:50:35;4.43;;;2.60;;
928;SDS011;451;47.988;7.842;2023-06-26T20:59:38;4.20;;;3.10;;
928;SDS011;451;47.988;7.842;2023-06-26T21:08:43;5.20;;;3.17;;
928;SDS011;451;47.988;7.842;2023-06-26T21:17:46;3.53;;;3.00;;
928;SDS011;451;47.988;7.842;2023-06-26T21:26:51;3.33;;;3.03;;
928;SDS011;451;47.988;7.842;2023-06-26T21:35:54;2.73;;;2.53;;
928;SDS011;451;47.988;7.842;2023-06-26T21:44:59;6.10;;;3.57;;
928;SDS011;451;47.988;7.842;2023-06-26T21:54:02;3.73;;;2.90;;
928;SDS011;451;47.988;7.842;2023-06-26T22:03:06;5.63;;;2.70;;
928;SDS011;451;47.988;7.842;2023-06-26T22:12:09;5.23;;;3.20;;
928;SDS011;451;47.988;7.842;2023-06-26T22:21:14;3.00;;;2.70;;
928;SDS011;451;47.988;7.842;2023-06-26T22:30:21;5.73;;;2.97;;
928;SDS011;451;47.988;7.842;2023-06-26T22:39:26;3.60;;;2.83;;
928;SDS011;451;47.988;7.842;2023-06-26T22:48:29;3.17;;;2.87;;
928;SDS011;451;47.988;7.842;2023-06-26T22:57:34;3.20;;;2.80;;
928;SDS011;451;47.988;7.842;2023-06-26T23:06:37;2.93;;;2.67;;
928;SDS011;451;47.988;7.842;2023-06-26T23:15:46;3.00;;;2.80;;
928;SDS011;451;47.988;7.842;2023-06-26T23:24:49;3.10;;;2.90;;
928;SDS011;451;47.988;7.842;2023-06-26T23:33:54;3.13;;;2.87;;
928;SDS011;451;47.988;7.842;2023-06-26T23:42:57;3.60;;;3.30;;
928;SDS011;451;47.988;7.842;2023-06-26T23:52:06;3.00;;;2.70;;
